Time;durP1;ratioP1;P1;durP2;ratioP2;P2;SDS_P1;SDS_P2;PMS_P1;PMS_P2;Temp;Humidity;BMP_temperature;BMP_pressure;BME280_temperature;BME280_humidity;BME280_pressure;Samples;Min_cycle;Max_cycle;Signal;HPM_P1;HPM_P2
2021/12/19 00:00:17;;;;;;;27.08;19.13;;;102.60;2227.20;;;;;;6161379;23;20087;-91
2021/12/19 00:02:59;;;;;;;36.55;23.52;;;102.60;2227.20;;;;;;6162362;23;20448;-91
2021/12/19 00:10:58;;;;;;;43.92;28.27;;;77.70;2227.20;;;;;;6188800;23;20004;-91
2021/12/19 00:13:25;;;;;;;31.80;20.77;;;102.60;2227.20;;;;;;6163054;23;20001;-87
2021/12/19 00:15:55;;;;;;;26.00;18.35;;;102.60;2227.20;;;;;;6162436;23;20403;-91
2021/12/19 00:18:23;;;;;;;25.90;15.82;;;102.60;2227.20;;;;;;6161951;23;20055;-88
2021/12/19 00:20:53;;;;;;;28.33;17.75;;;102.50;2227.20;;;;;;6162386;23;19997;-90
2021/12/19 00:23:23;;;;;;;58.22;39.50;;;102.60;2227.20;;;;;;6162429;23;19998;-89
2021/12/19 00:25:49;;;;;;;40.10;26.75;;;102.60;2227.20;;;;;;6162246;23;19993;-88
2021/12/19 00:28:18;;;;;;;30.90;20.77;;;102.60;2227.20;;;;;;6162386;23;20051;-89
2021/12/19 00:30:44;;;;;;;22.83;14.38;;;102.60;2227.20;;;;;;6162441;23;19997;-88
2021/12/19 00:33:21;;;;;;;23.73;16.27;;;102.60;2227.20;;;;;;6162653;23;20004;-93
2021/12/19 00:36:10;;;;;;;24.92;16.90;;;102.60;2227.20;;;;;;6163151;23;20076;-93
2021/12/19 00:39:02;;;;;;;32.97;19.40;;;102.70;2227.20;;;;;;6184662;23;19989;-92
2021/12/19 00:45:15;;;;;;;;;;;;;;;;;;;;;
2021/12/19 00:48:29;;;;;;;17.77;10.40;;;102.60;2227.20;;;;;;6187804;23;20080;-93
2021/12/19 00:54:43;;;;;;;;;;;;;;;;;;;;;
2021/12/19 01:01:45;;;;;;;;;;;;;;;;;;;;;
2021/12/19 01:05:12;;;;;;;19.65;11.55;;;102.60;2227.20;;;;;;6187641;23;20386;-92
2021/12/19 01:08:22;;;;;;;26.08;14.88;;;102.50;2227.20;;;;;;6068136;23;20003;-92
2021/12/19 01:17:46;;;;;;;20.52;13.45;;;102.60;2227.20;;;;;;6011133;23;20051;-94
2021/12/19 01:20:16;;;;;;;17.35;11.57;;;102.50;2227.20;;;;;;6010955;23;20015;-87
2021/12/19 01:22:45;;;;;;;27.70;16.85;;;102.50;2227.20;;;;;;6010791;23;20086;-87
2021/12/19 01:25:17;;;;;;;22.73;16.00;;;102.50;2227.20;;;;;;6091380;23;20001;-88
2021/12/19 01:27:43;;;;;;;28.52;17.00;;;102.50;2227.20;;;;;;6102433;23;20005;-90
2021/12/19 01:30:13;;;;;;;19.40;13.13;;;102.50;2227.20;;;;;;6126264;23;20004;-90
2021/12/19 01:32:43;;;;;;;19.17;12.75;;;102.50;2227.20;;;;;;6127969;23;20009;-92
2021/12/19 01:35:58;;;;;;;40.45;21.23;;;102.50;2227.20;;;;;;6152010;23;20009;-93
2021/12/19 01:38:35;;;;;;;24.55;14.10;;;102.60;2227.20;;;;;;6154433;23;20032;-91
2021/12/19 01:41:41;;;;;;;21.02;12.85;;;102.50;2227.20;;;;;;6161445;23;20009;-92
2021/12/19 01:44:28;;;;;;;21.52;13.70;;;102.50;2227.20;;;;;;6156813;23;20486;-92
2021/12/19 01:53:30;;;;;;;21.13;13.13;;;102.60;2227.20;;;;;;6198180;23;20420;-92
2021/12/19 01:56:08;;;;;;;22.95;15.13;;;102.50;2227.20;;;;;;6161736;23;20072;-93
2021/12/19 01:58:46;;;;;;;26.10;14.73;;;102.60;2227.20;;;;;;6164658;23;20096;-92
2021/12/19 02:01:25;;;;;;;21.15;14.80;;;102.60;2227.20;;;;;;6161546;23;20001;-92
2021/12/19 02:04:32;;;;;;;22.20;15.00;;;102.60;2227.20;;;;;;6161995;23;20080;-91
2021/12/19 02:07:13;;;;;;;23.70;14.75;;;102.50;2227.20;;;;;;6161564;23;20327;-91
2021/12/19 02:09:41;;;;;;;29.23;16.02;;;102.60;2227.20;;;;;;6161974;23;20008;-92
2021/12/19 02:12:10;;;;;;;24.90;15.73;;;102.60;2227.20;;;;;;6161829;23;20001;-92
2021/12/19 02:14:39;;;;;;;29.83;15.65;;;128.00;2252.80;;;;;;6161878;23;20001;-90
2021/12/19 02:17:05;;;;;;;23.20;14.90;;;102.50;2227.20;;;;;;6161999;23;20016;-91
2021/12/19 02:19:33;;;;;;;27.80;18.00;;;102.50;2227.20;;;;;;6161433;23;20009;-91
2021/12/19 02:22:02;;;;;;;22.27;15.20;;;102.50;2227.20;;;;;;6187723;23;20303;-92
2021/12/19 02:25:01;;;;;;;25.02;14.48;;;102.50;2227.20;;;;;;6161037;23;20004;-92
2021/12/19 02:27:50;;;;;;;23.30;15.32;;;102.50;2227.20;;;;;;6161289;23;20005;-92
2021/12/19 02:30:35;;;;;;;18.10;11.90;;;102.50;2227.20;;;;;;6161473;23;20001;-91
2021/12/19 02:33:25;;;;;;;23.13;14.35;;;102.50;2227.20;;;;;;6161430;23;20059;-92
2021/12/19 02:36:20;;;;;;;16.77;12.55;;;102.50;2227.20;;;;;;6161549;23;20084;-91
2021/12/19 02:49:46;;;;;;;21.52;12.88;;;102.40;2227.20;;;;;;6152335;23;20450;-86
2021/12/19 02:52:14;;;;;;;23.00;13.00;;;102.50;2227.20;;;;;;6160341;23;20061;-86
2021/12/19 02:54:40;;;;;;;18.42;12.95;;;102.50;2227.20;;;;;;6160922;23;20035;-93
2021/12/19 02:57:07;;;;;;;24.48;14.43;;;102.40;2227.20;;;;;;6160986;23;20088;-81
2021/12/19 02:59:38;;;;;;;24.05;16.77;;;102.50;2227.20;;;;;;6183965;23;20009;-86
2021/12/19 03:02:35;;;;;;;;;;;;;;;;;;;;;
2021/12/19 03:05:02;;;;;;;25.30;15.52;;;102.50;2227.20;;;;;;6216584;23;20068;-92
2021/12/19 03:07:29;;;;;;;25.52;15.30;;;102.50;2227.20;;;;;;6191139;23;20461;-91
2021/12/19 03:18:08;;;;;;;25.40;18.55;;;102.50;2227.20;;;;;;6217429;23;20067;-91
2021/12/19 03:20:35;;;;;;;24.60;14.90;;;102.60;2227.20;;;;;;6190979;23;19996;-91
2021/12/19 03:23:19;;;;;;;21.92;14.20;;;77.70;2227.20;;;;;;6190650;23;20091;-93
2021/12/19 03:25:50;;;;;;;20.13;13.13;;;102.50;2227.20;;;;;;6190781;23;20407;-92
2021/12/19 03:28:17;;;;;;;22.52;13.30;;;102.50;2227.20;;;;;;6190760;23;20319;-90
2021/12/19 03:30:45;;;;;;;19.42;12.95;;;102.50;2227.20;;;;;;6190488;23;20005;-92
2021/12/19 03:33:12;;;;;;;21.45;12.85;;;102.50;2227.20;;;;;;6190785;23;20537;-94
2021/12/19 03:35:41;;;;;;;23.70;14.38;;;102.50;2227.20;;;;;;6190654;23;20045;-92
2021/12/19 03:38:18;;;;;;;20.35;12.10;;;102.50;2227.20;;;;;;6191484;23;20020;-93
2021/12/19 03:41:09;;;;;;;17.50;12.27;;;102.50;2227.20;;;;;;6193327;23;20083;-92
2021/12/19 03:43:35;;;;;;;22.00;13.35;;;102.50;2227.20;;;;;;6192692;23;20003;-91
2021/12/19 03:46:20;;;;;;;18.70;12.13;;;102.50;2227.20;;;;;;6192440;23;20001;-92
2021/12/19 03:48:49;;;;;;;17.63;12.45;;;102.50;2227.20;;;;;;6192000;23;20307;-93
2021/12/19 03:54:31;;;;;;;29.90;16.77;;;102.50;2227.20;;;;;;6213520;23;20024;-93
2021/12/19 03:57:21;;;;;;;25.77;14.60;;;102.50;2227.20;;;;;;6192799;23;19997;-93
2021/12/19 03:59:50;;;;;;;21.08;13.57;;;102.40;2227.20;;;;;;6171194;23;20043;-93
2021/12/19 04:02:26;;;;;;;22.42;13.55;;;102.40;2227.20;;;;;;6189481;23;20001;-93
2021/12/19 04:04:54;;;;;;;20.58;12.45;;;102.40;2227.20;;;;;;6175833;23;19997;-92
2021/12/19 04:07:21;;;;;;;20.48;13.70;;;102.50;2227.20;;;;;;6169862;23;20142;-91
2021/12/19 04:09:47;;;;;;;21.73;12.32;;;103.20;2227.20;;;;;;6167342;23;20008;-93
2021/12/19 04:12:13;;;;;;;19.13;11.10;;;102.50;2227.20;;;;;;6162728;23;20011;-93
2021/12/19 04:14:39;;;;;;;24.33;12.15;;;102.50;2227.20;;;;;;6162779;23;20380;-93
2021/12/19 04:17:05;;;;;;;18.23;11.88;;;102.50;2227.20;;;;;;6163303;23;20438;-93
2021/12/19 04:19:32;;;;;;;23.98;12.63;;;102.80;2227.20;;;;;;6163081;23;20004;-94
2021/12/19 04:21:59;;;;;;;23.38;14.70;;;77.70;2227.20;;;;;;6162595;23;20059;-92
2021/12/19 04:24:25;;;;;;;27.13;16.40;;;102.50;2227.20;;;;;;6162236;23;20004;-93
2021/12/19 04:26:51;;;;;;;22.80;14.70;;;102.50;2227.20;;;;;;6162343;23;20005;-92
2021/12/19 04:29:17;;;;;;;26.25;16.10;;;102.60;2227.20;;;;;;6162503;23;20025;-91
2021/12/19 04:31:43;;;;;;;22.20;14.63;;;102.60;2227.20;;;;;;6162638;23;20005;-93
2021/12/19 04:34:12;;;;;;;21.77;13.95;;;102.60;2227.20;;;;;;6162378;23;20009;-92
2021/12/19 04:36:41;;;;;;;26.63;14.77;;;102.50;2227.20;;;;;;6162671;23;20032;-93
2021/12/19 05:01:02;;;;;;;47.40;30.25;;;102.50;2227.20;;;;;;6188366;23;20099;-90
2021/12/19 05:03:43;;;;;;;47.05;28.23;;;102.50;2227.20;;;;;;6162542;23;20301;-92
2021/12/19 05:06:18;;;;;;;56.10;34.60;;;102.50;2227.20;;;;;;6162707;23;20012;-92
2021/12/19 05:14:18;;;;;;;38.63;23.88;;;102.50;2227.20;;;;;;6188484;23;20059;-93
2021/12/19 05:16:46;;;;;;;25.80;16.35;;;102.50;2227.20;;;;;;6162769;23;20001;-93
2021/12/19 05:19:25;;;;;;;28.08;19.63;;;102.50;2227.20;;;;;;6162319;23;20006;-93
2021/12/19 05:21:55;;;;;;;35.72;22.30;;;102.50;2227.20;;;;;;6162644;23;20009;-92
2021/12/19 05:26:48;;;;;;;29.05;18.48;;;102.50;2227.20;;;;;;6188469;23;19994;-90
2021/12/19 05:29:17;;;;;;;34.58;22.08;;;102.50;2227.20;;;;;;6162095;23;20080;-93
2021/12/19 05:31:44;;;;;;;24.30;17.35;;;102.60;2227.20;;;;;;6162499;23;20047;-91
2021/12/19 05:34:10;;;;;;;34.92;23.88;;;102.60;2227.20;;;;;;6162096;23;20422;-91
2021/12/19 05:47:21;;;;;;;25.40;15.30;;;102.70;2227.20;;;;;;6188860;23;20040;-92
2021/12/19 05:49:47;;;;;;;23.98;15.48;;;102.70;2227.20;;;;;;6165058;23;20000;-91
2021/12/19 05:52:13;;;;;;;25.65;17.35;;;102.60;2227.20;;;;;;6164467;23;20005;-91
2021/12/19 05:54:39;;;;;;;18.70;13.55;;;102.70;2227.20;;;;;;6163223;23;20053;-91
2021/12/19 05:57:05;;;;;;;26.88;16.10;;;102.60;2227.20;;;;;;6161913;23;20007;-92
2021/12/19 05:59:30;;;;;;;23.75;15.23;;;102.60;2227.20;;;;;;6161553;23;20008;-93
2021/12/19 06:01:56;;;;;;;23.23;12.32;;;102.60;2227.20;;;;;;6161343;23;20005;-93
2021/12/19 06:04:22;;;;;;;19.20;12.75;;;102.60;2227.20;;;;;;6161559;23;20407;-93
2021/12/19 06:06:51;;;;;;;28.30;17.30;;;102.60;2227.20;;;;;;6161730;23;20087;-94
2021/12/19 06:09:19;;;;;;;23.33;14.05;;;102.60;2227.20;;;;;;6161714;23;20004;-91
2021/12/19 06:11:48;;;;;;;19.85;13.57;;;102.60;2227.20;;;;;;6162054;23;20438;-91
2021/12/19 06:14:14;;;;;;;18.77;12.85;;;102.60;2227.20;;;;;;6161730;23;19993;-92
2021/12/19 06:16:42;;;;;;;23.83;16.27;;;102.60;2227.20;;;;;;6161961;23;19997;-91
2021/12/19 06:19:08;;;;;;;30.17;15.38;;;102.60;2227.20;;;;;;6161774;23;20000;-93
2021/12/19 06:21:34;;;;;;;28.42;16.13;;;102.60;2227.20;;;;;;6161554;23;20005;-92
2021/12/19 06:24:00;;;;;;;45.20;23.10;;;102.60;2227.20;;;;;;6162143;23;20119;-92
2021/12/19 06:26:32;;;;;;;29.13;17.95;;;102.60;2227.20;;;;;;6161789;23;20000;-91
2021/12/19 06:28:57;;;;;;;33.15;19.77;;;102.60;2227.20;;;;;;6161626;23;20132;-91
2021/12/19 06:31:23;;;;;;;52.03;31.58;;;102.50;2227.20;;;;;;6161630;23;20001;-93
2021/12/19 06:33:52;;;;;;;25.33;15.82;;;102.60;2227.20;;;;;;6161551;23;20025;-91
2021/12/19 06:36:18;;;;;;;26.42;16.38;;;102.60;2227.20;;;;;;6161473;23;19997;-93
2021/12/19 06:38:44;;;;;;;26.00;15.82;;;102.60;2227.20;;;;;;6162338;23;19997;-92
2021/12/19 06:41:12;;;;;;;23.40;15.57;;;102.60;2227.20;;;;;;6163085;23;19997;-91
2021/12/19 06:43:41;;;;;;;32.00;20.42;;;102.60;2227.20;;;;;;6162125;23;20296;-93
2021/12/19 06:46:08;;;;;;;56.63;31.83;;;102.70;2227.20;;;;;;6161379;23;20088;-93
2021/12/19 06:48:37;;;;;;;51.28;33.58;;;102.70;2227.20;;;;;;6161182;23;20359;-92
2021/12/19 06:51:03;;;;;;;40.45;29.85;;;102.60;2227.20;;;;;;6161065;23;20009;-92
2021/12/19 06:53:29;;;;;;;38.85;32.30;;;102.60;2227.20;;;;;;6161445;23;20036;-92
2021/12/19 06:55:58;;;;;;;26.58;20.90;;;102.60;2227.20;;;;;;6161265;23;20001;-92
2021/12/19 06:58:25;;;;;;;22.10;16.73;;;102.60;2227.20;;;;;;6160906;23;20001;-91
2021/12/19 07:00:51;;;;;;;34.10;21.27;;;102.70;2227.20;;;;;;6161373;23;20020;-93
2021/12/19 07:03:23;;;;;;;24.80;15.68;;;102.70;2227.20;;;;;;6161163;23;20415;-92
2021/12/19 07:05:50;;;;;;;32.90;20.10;;;102.70;2227.20;;;;;;6161052;23;20000;-94
2021/12/19 07:08:21;;;;;;;30.88;17.98;;;102.60;2227.20;;;;;;6161135;23;20024;-94
2021/12/19 07:10:47;;;;;;;51.55;28.13;;;102.70;2227.20;;;;;;6161571;23;20004;-91
2021/12/19 07:13:19;;;;;;;40.50;24.55;;;103.30;2227.20;;;;;;6161038;23;20423;-93
2021/12/19 07:15:49;;;;;;;22.92;14.02;;;102.70;2227.20;;;;;;6161670;23;20036;-94
2021/12/19 07:18:16;;;;;;;33.35;20.90;;;102.80;2227.20;;;;;;6161322;23;20000;-92
2021/12/19 07:20:43;;;;;;;28.20;17.13;;;102.60;2227.20;;;;;;6161040;23;20005;-94
2021/12/19 07:23:13;;;;;;;46.17;29.95;;;77.60;2227.20;;;;;;6161454;23;20005;-87
2021/12/19 07:25:40;;;;;;;28.52;19.88;;;102.90;2227.20;;;;;;6177104;23;19985;-90
2021/12/19 07:28:07;;;;;;;45.92;30.15;;;102.90;2227.20;;;;;;6180414;23;20005;-92
2021/12/19 07:30:36;;;;;;;28.30;19.02;;;102.90;2227.20;;;;;;6167895;23;20024;-91
2021/12/19 07:33:05;;;;;;;30.08;19.98;;;103.00;2227.20;;;;;;6165164;23;20013;-90
2021/12/19 07:35:37;;;;;;;25.85;16.65;;;103.00;2227.20;;;;;;6161143;23;20419;-91
2021/12/19 07:38:05;;;;;;;24.58;16.48;;;103.00;2227.20;;;;;;6161238;23;20438;-91
2021/12/19 07:40:39;;;;;;;38.28;24.38;;;103.00;2227.20;;;;;;6161062;23;20093;-91
2021/12/19 07:43:08;;;;;;;24.13;17.15;;;103.00;2227.20;;;;;;6160881;23;20450;-91
2021/12/19 07:45:34;;;;;;;23.63;15.85;;;103.00;2227.20;;;;;;6161211;23;19997;-92
2021/12/19 07:48:01;;;;;;;61.35;37.20;;;103.10;2227.20;;;;;;6161032;23;19997;-91
2021/12/19 07:50:28;;;;;;;71.85;37.22;;;103.00;2227.20;;;;;;6161082;23;20482;-91
2021/12/19 07:52:54;;;;;;;92.78;48.50;;;103.00;2227.20;;;;;;6160923;23;19997;-92
2021/12/19 07:55:21;;;;;;;35.92;22.40;;;103.00;2227.20;;;;;;6161148;23;20008;-93
2021/12/19 07:57:47;;;;;;;31.40;21.80;;;103.00;2227.20;;;;;;6160832;23;20059;-93
2021/12/19 08:00:15;;;;;;;24.92;16.77;;;103.00;2227.20;;;;;;6160773;23;20013;-89
2021/12/19 08:02:42;;;;;;;27.73;16.40;;;103.00;2227.20;;;;;;6160888;23;20009;-92
2021/12/19 08:05:09;;;;;;;28.85;19.10;;;103.00;2227.20;;;;;;6160861;23;20005;-92
2021/12/19 08:07:38;;;;;;;27.25;18.35;;;103.00;2227.20;;;;;;6161034;23;19997;-93
2021/12/19 08:12:34;;;;;;;28.15;17.10;;;103.10;2227.20;;;;;;6187286;23;20001;-94
2021/12/19 08:15:00;;;;;;;27.27;19.33;;;128.20;2252.80;;;;;;6161592;23;20028;-91
2021/12/19 08:17:26;;;;;;;28.73;20.42;;;103.10;2227.20;;;;;;6161194;23;20056;-92
2021/12/19 08:19:52;;;;;;;25.20;17.70;;;103.20;2227.20;;;;;;6160934;23;20004;-92
2021/12/19 08:22:20;;;;;;;26.98;18.95;;;103.20;2227.20;;;;;;6160438;23;20001;-92
2021/12/19 08:24:47;;;;;;;45.53;28.98;;;103.10;2227.20;;;;;;6162452;23;20001;-92
2021/12/19 08:27:13;;;;;;;39.97;23.88;;;103.20;2227.20;;;;;;6163043;23;19993;-92
2021/12/19 08:29:39;;;;;;;29.85;18.95;;;103.30;2227.20;;;;;;6162662;23;20004;-92
2021/12/19 08:32:05;;;;;;;34.88;24.33;;;103.30;2227.20;;;;;;6162594;23;20307;-93
2021/12/19 08:34:31;;;;;;;42.35;29.88;;;103.20;2227.20;;;;;;6162617;23;20015;-91
2021/12/19 08:36:58;;;;;;;27.90;20.15;;;103.30;2227.20;;;;;;6162694;23;20001;-92
2021/12/19 08:39:24;;;;;;;23.40;18.05;;;103.30;2227.20;;;;;;6162662;23;20001;-92
2021/12/19 08:41:50;;;;;;;32.83;20.50;;;103.30;2227.20;;;;;;6162739;23;20059;-92
2021/12/19 08:44:16;;;;;;;28.23;21.70;;;103.30;2227.20;;;;;;6162647;23;20044;-92
2021/12/19 08:46:42;;;;;;;25.17;18.15;;;103.30;2227.20;;;;;;6162350;23;20411;-92
2021/12/19 08:49:10;;;;;;;30.08;19.33;;;103.30;2227.20;;;;;;6162399;23;20446;-93
2021/12/19 08:51:37;;;;;;;34.47;23.20;;;103.30;2227.20;;;;;;6162203;23;20001;-92
2021/12/19 08:54:04;;;;;;;30.88;20.90;;;103.30;2227.20;;;;;;6162322;23;20319;-92
2021/12/19 08:56:30;;;;;;;36.92;25.48;;;103.30;2227.20;;;;;;6162564;23;20029;-92
2021/12/19 08:58:57;;;;;;;34.65;23.55;;;103.30;2227.20;;;;;;6162334;23;20445;-93
2021/12/19 09:01:23;;;;;;;35.80;24.92;;;103.30;2227.20;;;;;;6162205;23;20076;-91
2021/12/19 09:03:49;;;;;;;27.65;19.30;;;103.30;2227.20;;;;;;6162195;23;20459;-90
2021/12/19 09:06:15;;;;;;;22.83;16.75;;;103.30;2227.20;;;;;;6162417;23;19997;-92
2021/12/19 09:08:41;;;;;;;28.70;20.23;;;128.00;2252.80;;;;;;6162309;23;20306;-92
2021/12/19 09:11:07;;;;;;;27.42;16.88;;;128.00;2252.80;;;;;;6162444;23;19997;-92
2021/12/19 09:13:33;;;;;;;27.58;19.15;;;128.00;2252.80;;;;;;6162191;23;20080;-92
2021/12/19 09:16:00;;;;;;;22.88;17.00;;;128.00;2252.80;;;;;;6162360;23;19997;-92
2021/12/19 09:18:28;;;;;;;21.85;15.88;;;128.00;2252.80;;;;;;6162519;23;20001;-92
2021/12/19 09:20:54;;;;;;;29.35;20.85;;;128.00;2252.80;;;;;;6162420;23;19997;-92
2021/12/19 09:23:20;;;;;;;19.25;14.82;;;103.10;2227.20;;;;;;6162272;23;20001;-92
2021/12/19 09:25:46;;;;;;;21.95;14.73;;;103.30;2227.20;;;;;;6161962;23;20052;-94
2021/12/19 09:28:13;;;;;;;27.40;16.15;;;128.00;2252.80;;;;;;6161937;23;19997;-92
2021/12/19 09:30:41;;;;;;;22.33;15.25;;;128.00;2252.80;;;;;;6161914;23;20001;-92
2021/12/19 09:33:07;;;;;;;23.95;16.00;;;128.00;2252.80;;;;;;6162141;23;20005;-92
2021/12/19 09:35:34;;;;;;;36.05;23.63;;;128.00;2252.80;;;;;;6161456;23;20007;-92
2021/12/19 09:38:02;;;;;;;27.00;18.95;;;128.10;2252.80;;;;;;6162251;23;20005;-93
2021/12/19 09:40:36;;;;;;;24.77;16.38;;;128.20;2252.80;;;;;;6162116;23;20032;-91
2021/12/19 09:43:05;;;;;;;21.65;15.30;;;128.20;2252.80;;;;;;6161816;23;20009;-90
2021/12/19 10:00:18;;;;;;;28.08;19.50;;;128.30;2252.80;;;;;;5909159;24;20013;-92
2021/12/19 10:10:46;;;;;;;;;;;;;;;;;;;;;
2021/12/19 10:17:21;;;;;;;30.75;22.35;;;128.50;2252.80;;;;;;6038486;23;20225;-92
2021/12/19 10:45:29;;;;;;;27.27;19.60;;;128.90;2252.80;;;;;;5901707;24;20021;-91
2021/12/19 10:54:36;;;;;;;;;;;;;;;;;;;;;
2021/12/19 11:00:39;;;;;;;36.47;22.92;;;153.90;2252.80;;;;;;5899890;24;20004;-93
2021/12/19 11:03:05;;;;;;;25.35;16.70;;;154.00;2252.80;;;;;;5937759;23;20525;-88
2021/12/19 11:05:40;;;;;;;35.03;24.05;;;154.10;2252.80;;;;;;6010143;23;20004;-87
2021/12/19 11:08:10;;;;;;;31.02;19.65;;;154.20;2252.80;;;;;;6160334;23;20004;-90
2021/12/19 11:10:38;;;;;;;33.17;22.67;;;154.30;2252.80;;;;;;6191058;23;19997;-89
2021/12/19 11:13:10;;;;;;;33.92;21.80;;;154.40;2252.80;;;;;;6190304;23;20004;-85
2021/12/19 11:15:36;;;;;;;24.85;16.30;;;154.40;2252.80;;;;;;6190201;23;20054;-91
2021/12/19 11:18:09;;;;;;;24.90;17.70;;;154.30;2252.80;;;;;;6191158;23;20008;-88
2021/12/19 11:20:35;;;;;;;;;;;154.30;2252.80;;;;;;6191038;23;20387;-82
2021/12/19 11:23:01;;;;;;;24.25;16.25;;;154.20;2252.80;;;;;;6190311;23;19910;-86
2021/12/19 11:25:39;;;;;;;18.67;12.18;;;154.10;2252.80;;;;;;6190288;23;20066;-87
2021/12/19 11:29:01;;;;;;;23.73;17.20;;;154.10;2252.80;;;;;;6191530;23;20001;-90
2021/12/19 11:31:38;;;;;;;26.77;16.83;;;154.00;2252.80;;;;;;6165122;23;20001;-91
2021/12/19 11:34:04;;;;;;;25.50;17.20;;;153.90;2252.80;;;;;;6190406;23;20315;-90
2021/12/19 11:36:41;;;;;;;21.05;14.85;;;154.10;2252.80;;;;;;6190897;23;20000;-90
2021/12/19 11:39:07;;;;;;;33.05;22.90;;;153.90;2252.80;;;;;;6190859;23;20021;-90
2021/12/19 11:41:34;;;;;;;22.63;15.25;;;153.90;2252.80;;;;;;6190517;23;20128;-89
2021/12/19 11:44:30;;;;;;;23.38;17.40;;;153.90;2252.80;;;;;;6190731;23;20000;-93
2021/12/19 11:46:56;;;;;;;30.55;20.48;;;153.90;2252.80;;;;;;6169831;23;20007;-91
2021/12/19 11:49:25;;;;;;;42.95;28.05;;;153.90;2252.80;;;;;;6190563;23;20001;-86
2021/12/19 11:52:28;;;;;;;23.33;16.45;;;154.00;2252.80;;;;;;6190406;23;20032;-86
2021/12/19 11:55:20;;;;;;;37.92;25.63;;;154.00;2252.80;;;;;;6190174;23;20092;-88
2021/12/19 11:58:07;;;;;;;34.25;23.50;;;154.00;2252.80;;;;;;6190463;23;19993;-87
2021/12/19 12:01:11;;;;;;;28.98;20.02;;;153.90;2252.80;;;;;;6192483;23;20415;-91
2021/12/19 12:03:45;;;;;;;42.67;25.27;;;153.90;2252.80;;;;;;6180672;23;20016;-89
2021/12/19 12:06:15;;;;;;;24.60;18.98;;;153.90;2252.80;;;;;;6166667;23;20047;-89
2021/12/19 12:12:12;;;;;;;35.17;22.92;;;153.80;2252.80;;;;;;6175746;23;20008;-83
2021/12/19 12:14:45;;;;;;;35.22;24.77;;;153.80;2252.80;;;;;;6162115;23;20001;-81
2021/12/19 12:17:20;;;;;;;31.75;22.35;;;153.90;2252.80;;;;;;6161679;23;20040;-85
2021/12/19 12:19:52;;;;;;;28.70;19.45;;;154.00;2252.80;;;;;;6162113;23;20008;-81
2021/12/19 12:22:27;;;;;;;27.30;17.65;;;154.00;2252.80;;;;;;6187736;23;20005;-85
2021/12/19 12:25:07;;;;;;;35.22;23.35;;;153.90;2252.80;;;;;;6161758;23;19997;-82
2021/12/19 12:27:54;;;;;;;35.50;22.95;;;153.90;2252.80;;;;;;6187915;23;19993;-81
2021/12/19 12:30:45;;;;;;;25.45;17.65;;;153.90;2252.80;;;;;;6161322;23;19993;-82
2021/12/19 12:33:16;;;;;;;37.95;22.40;;;153.90;2252.80;;;;;;6161501;23;20055;-82
2021/12/19 12:35:44;;;;;;;46.38;28.85;;;153.90;2252.80;;;;;;6161531;23;20415;-80
2021/12/19 12:38:14;;;;;;;43.47;27.40;;;153.90;2252.80;;;;;;6161687;23;19997;-89
2021/12/19 12:43:45;;;;;;;37.85;25.38;;;153.90;2252.80;;;;;;6107914;23;20030;-90
2021/12/19 12:46:26;;;;;;;38.50;26.98;;;153.80;2252.80;;;;;;6162579;23;20040;-89
2021/12/19 12:48:54;;;;;;;89.95;46.55;;;153.90;2252.80;;;;;;6162130;23;20008;-87
2021/12/19 12:51:39;;;;;;;121.88;67.25;;;153.80;2252.80;;;;;;6161225;23;20001;-85
2021/12/19 12:54:10;;;;;;;84.10;44.20;;;153.80;2252.80;;;;;;6161586;23;19993;-84
2021/12/19 12:56:47;;;;;;;67.78;38.28;;;153.90;2252.80;;;;;;6161358;23;20025;-82
2021/12/19 12:59:17;;;;;;;65.38;36.38;;;153.90;2252.80;;;;;;6161237;23;20004;-82
2021/12/19 13:02:13;;;;;;;43.97;26.40;;;153.90;2252.80;;;;;;6161532;23;20009;-89
2021/12/19 13:04:44;;;;;;;35.13;21.52;;;153.70;2252.80;;;;;;6161460;23;20335;-88
2021/12/19 13:07:11;;;;;;;78.05;46.03;;;153.60;2252.80;;;;;;6161743;23;20005;-88
2021/12/19 13:09:46;;;;;;;67.93;40.85;;;128.80;2252.80;;;;;;6161856;23;20001;-88
2021/12/19 13:12:20;;;;;;;51.97;34.88;;;128.70;2252.80;;;;;;6161372;23;20009;-87
2021/12/19 13:14:49;;;;;;;55.30;35.03;;;128.70;2252.80;;;;;;6161668;23;20462;-89
2021/12/19 13:17:28;;;;;;;66.25;41.38;;;128.80;2252.80;;;;;;6161668;23;20001;-80
2021/12/19 13:20:03;;;;;;;89.07;45.85;;;128.80;2252.80;;;;;;6160901;23;19993;-83
2021/12/19 13:22:35;;;;;;;60.95;38.97;;;128.80;2252.80;;;;;;6160973;23;20009;-79
2021/12/19 13:25:06;;;;;;;;;;;128.60;2252.80;;;;;;6161254;23;20004;-79
2021/12/19 13:27:47;;;;;;;46.78;30.50;;;128.60;2252.80;;;;;;6188156;23;19900;-90
2021/12/19 13:30:15;;;;;;;58.70;33.63;;;128.70;2252.80;;;;;;6161582;23;20035;-89
2021/12/19 13:32:45;;;;;;;53.60;35.85;;;128.60;2252.80;;;;;;6161871;23;19993;-88
2021/12/19 13:35:22;;;;;;;57.53;37.47;;;128.60;2252.80;;;;;;6161978;23;20013;-88
2021/12/19 13:38:19;;;;;;;72.72;45.13;;;128.60;2252.80;;;;;;6161621;23;20028;-90
2021/12/19 13:41:12;;;;;;;;;;;;;;;;;;;;;
2021/12/19 13:43:41;;;;;;;77.00;48.97;;;128.70;2252.80;;;;;;6187495;23;20088;-89
2021/12/19 13:46:13;;;;;;;74.85;45.80;;;128.90;2252.80;;;;;;6161727;23;20007;-90
2021/12/19 13:48:39;;;;;;;143.57;90.78;;;128.70;2252.80;;;;;;6161999;23;19993;-91
2021/12/19 13:51:22;;;;;;;133.32;79.80;;;128.70;2252.80;;;;;;6162197;23;19993;-90
2021/12/19 13:53:51;;;;;;;116.57;68.00;;;128.70;2252.80;;;;;;6161966;23;20076;-88
2021/12/19 13:56:29;;;;;;;83.35;58.50;;;128.70;2252.80;;;;;;6159427;23;19993;-89
2021/12/19 13:59:01;;;;;;;84.55;60.00;;;128.60;2252.80;;;;;;6160684;23;19997;-83
2021/12/19 14:01:34;;;;;;;95.68;61.20;;;128.70;2252.80;;;;;;6187035;23;20003;-90
2021/12/19 14:04:18;;;;;;;125.65;75.30;;;128.70;2252.80;;;;;;6161013;23;20016;-88
2021/12/19 14:06:58;;;;;;;114.65;77.18;;;128.70;2252.80;;;;;;6161916;23;20080;-87
2021/12/19 14:09:27;;;;;;;88.85;59.67;;;128.70;2252.80;;;;;;6164690;23;19993;-89
2021/12/19 14:11:57;;;;;;;115.70;70.65;;;128.80;2252.80;;;;;;6188832;23;20009;-85
2021/12/19 14:14:30;;;;;;;103.03;64.45;;;128.70;2252.80;;;;;;6163306;23;20001;-89
2021/12/19 14:17:01;;;;;;;99.35;60.38;;;128.80;2252.80;;;;;;6162927;23;20001;-88
2021/12/19 14:19:31;;;;;;;79.68;49.05;;;128.80;2252.80;;;;;;6161482;23;20076;-90
2021/12/19 14:22:04;;;;;;;67.72;46.63;;;128.90;2252.80;;;;;;6160810;23;20008;-87
2021/12/19 14:24:46;;;;;;;;;;;128.80;2252.80;;;;;;6161989;23;20008;-87
2021/12/19 14:27:25;;;;;;;67.37;43.07;;;128.80;2252.80;;;;;;6185954;23;20628;-88
2021/12/19 14:29:54;;;;;;;73.97;51.13;;;128.70;2252.80;;;;;;6161651;23;20033;-88
2021/12/19 14:32:26;;;;;;;63.63;44.17;;;128.70;2252.80;;;;;;6161266;23;20005;-83
2021/12/19 14:34:58;;;;;;;75.70;48.28;;;128.70;2252.80;;;;;;6186991;23;19993;-83
2021/12/19 14:37:34;;;;;;;78.45;52.65;;;128.60;2252.80;;;;;;6187331;23;20066;-91
2021/12/19 14:40:13;;;;;;;72.28;49.78;;;128.60;2252.80;;;;;;6187641;23;20063;-90
2021/12/19 14:42:45;;;;;;;62.70;45.88;;;128.60;2252.80;;;;;;6161069;23;20005;-89
2021/12/19 14:45:42;;;;;;;74.03;48.77;;;128.60;2252.80;;;;;;6161454;23;20005;-90
2021/12/19 14:48:41;;;;;;;89.47;58.47;;;128.60;2252.80;;;;;;6161385;23;20050;-89
2021/12/19 14:51:22;;;;;;;94.32;62.20;;;103.20;2227.20;;;;;;6082321;23;20001;-89
2021/12/19 14:53:48;;;;;;;75.70;51.05;;;128.50;2252.80;;;;;;6161408;23;20009;-89
2021/12/19 14:56:23;;;;;;;82.38;54.97;;;128.50;2252.80;;;;;;6161185;23;20032;-88
2021/12/19 14:58:54;;;;;;;103.55;60.88;;;128.40;2252.80;;;;;;6161390;23;19997;-88
2021/12/19 15:01:28;;;;;;;80.82;52.33;;;128.40;2252.80;;;;;;6161026;23;20020;-88
2021/12/19 15:04:00;;;;;;;65.47;42.47;;;128.40;2252.80;;;;;;6160747;23;20005;-88
2021/12/19 15:06:30;;;;;;;77.05;47.15;;;128.30;2252.80;;;;;;6161240;23;20001;-88
2021/12/19 15:08:57;;;;;;;74.45;47.15;;;128.20;2252.80;;;;;;6161344;23;20056;-88
2021/12/19 15:11:24;;;;;;;97.03;58.80;;;128.20;2252.80;;;;;;6161379;23;20139;-89
2021/12/19 15:13:53;;;;;;;92.90;60.10;;;102.50;2227.20;;;;;;6161356;23;19997;-89
2021/12/19 15:16:22;;;;;;;106.30;62.65;;;128.30;2252.80;;;;;;6161626;23;20001;-89
2021/12/19 15:18:48;;;;;;;91.22;59.72;;;128.20;2252.80;;;;;;6161300;23;20001;-88